Time;durP1;ratioP1;P1;durP2;ratioP2;P2;SDS_P1;SDS_P2;PMS_P1;PMS_P2;Temp;Humidity;BMP_temperature;BMP_pressure;BME280_temperature;BME280_humidity;BME280_pressure;Samples;Min_cycle;Max_cycle;Signal;HPM_P1;HPM_P2
2021/12/21 00:00:12;;;;;;;1999.90;999.90;;;0.80;99.90;;;;;;5052738;28;20247;-67
2021/12/21 00:02:40;;;;;;;1999.90;999.90;;;0.70;99.90;;;;;;5052693;28;20175;-66
2021/12/21 00:05:06;;;;;;;1999.90;999.90;;;0.70;99.90;;;;;;5052581;28;20175;-66
2021/12/21 00:07:32;;;;;;;1999.90;999.90;;;0.60;99.90;;;;;;5053541;28;20203;-66
2021/12/21 00:09:58;;;;;;;1999.90;999.90;;;0.60;99.90;;;;;;5056364;28;20609;-66
2021/12/21 00:12:27;;;;;;;1999.90;999.90;;;0.50;99.90;;;;;;5056098;28;20700;-67
2021/12/21 00:17:46;;;;;;;1999.90;999.90;;;0.50;99.90;;;;;;5056443;28;20172;-66
2021/12/21 00:25:11;;;;;;;1999.90;999.90;;;0.40;99.90;;;;;;5056244;28;20168;-66
2021/12/21 00:27:37;;;;;;;1999.90;999.90;;;0.40;99.90;;;;;;5056078;28;20180;-66
2021/12/21 00:30:03;;;;;;;1999.90;999.90;;;0.40;99.90;;;;;;5056119;28;20172;-67
2021/12/21 00:32:29;;;;;;;1999.90;999.90;;;0.30;99.90;;;;;;5056098;28;20172;-66
2021/12/21 00:34:54;;;;;;;1999.90;999.90;;;0.30;99.90;;;;;;5055502;28;20182;-66
2021/12/21 00:37:22;;;;;;;1999.90;999.90;;;0.10;99.90;;;;;;5055785;28;20217;-67
2021/12/21 00:39:48;;;;;;;1999.90;999.90;;;0.10;99.90;;;;;;5055992;28;20225;-67
2021/12/21 00:42:13;;;;;;;1999.90;999.90;;;-0.10;99.90;;;;;;5056077;28;20581;-66
2021/12/21 00:44:40;;;;;;;1999.90;999.90;;;0.00;99.90;;;;;;5055425;28;20667;-66
2021/12/21 00:47:07;;;;;;;1999.90;999.90;;;0.00;99.90;;;;;;5055925;28;20261;-67
2021/12/21 00:49:32;;;;;;;1999.90;999.90;;;0.10;99.90;;;;;;5055753;28;20192;-67
2021/12/21 00:51:58;;;;;;;1999.90;999.90;;;0.10;99.90;;;;;;5055894;28;20289;-67
2021/12/21 00:54:24;;;;;;;1999.90;999.90;;;0.10;99.90;;;;;;5055860;28;20693;-66
2021/12/21 00:56:49;;;;;;;1999.90;999.90;;;0.00;99.90;;;;;;5055988;28;20166;-67
2021/12/21 00:59:15;;;;;;;1999.90;999.90;;;0.10;99.90;;;;;;5055952;28;20958;-67
2021/12/21 01:01:42;;;;;;;1999.90;999.90;;;0.10;99.90;;;;;;5055706;28;20210;-67
2021/12/21 01:04:17;;;;;;;1999.90;999.90;;;0.00;99.90;;;;;;5055145;28;20195;-66
2021/12/21 01:06:57;;;;;;;1999.90;999.90;;;-0.10;99.90;;;;;;5056101;28;20174;-67
2021/12/21 01:09:51;;;;;;;1999.90;999.90;;;-0.10;99.90;;;;;;5055628;28;20198;-67
2021/12/21 01:12:13;;;;;;;1999.90;999.90;;;-0.10;99.90;;;;;;5055499;28;20175;-66
2021/12/21 01:17:29;;;;;;;1999.90;999.90;;;-0.20;99.90;;;;;;5055813;28;20171;-67
2021/12/21 01:20:13;;;;;;;1999.90;999.90;;;-0.40;99.90;;;;;;5054364;28;20676;-66
2021/12/21 01:25:25;;;;;;;1999.90;999.90;;;-0.60;99.90;;;;;;5054531;28;20164;-66
2021/12/21 01:28:01;;;;;;;1999.90;999.90;;;-0.60;99.90;;;;;;5055214;28;20196;-67
2021/12/21 01:30:45;;;;;;;1999.90;999.90;;;-0.50;99.90;;;;;;5055286;28;20256;-67
2021/12/21 01:35:57;;;;;;;1999.90;999.90;;;-0.60;99.90;;;;;;5054792;28;20660;-66
2021/12/21 01:38:30;;;;;;;1999.90;999.90;;;-0.70;99.90;;;;;;5054563;28;20242;-67
2021/12/21 01:43:33;;;;;;;1999.90;999.90;;;-0.80;99.90;;;;;;5054616;28;20179;-67
2021/12/21 01:51:27;;;;;;;1999.90;999.90;;;-0.70;99.90;;;;;;5054476;28;20237;-67
2021/12/21 01:53:53;;;;;;;1999.90;999.90;;;-0.70;99.90;;;;;;5054207;28;20180;-66
2021/12/21 01:56:20;;;;;;;1999.90;999.90;;;-0.80;99.90;;;;;;5053911;28;20171;-67
2021/12/21 01:58:46;;;;;;;1999.90;999.90;;;-0.90;99.90;;;;;;5054449;28;20211;-66
2021/12/21 02:01:17;;;;;;;1999.90;999.90;;;-0.90;99.90;;;;;;5054534;28;20202;-67
2021/12/21 02:03:47;;;;;;;1999.90;999.90;;;-0.90;99.90;;;;;;5054129;28;20654;-67
2021/12/21 02:06:17;;;;;;;1999.90;999.90;;;-0.90;99.90;;;;;;5053802;28;20194;-67
2021/12/21 02:08:43;;;;;;;1999.90;999.90;;;-0.90;99.90;;;;;;5053761;28;20195;-67
2021/12/21 02:11:09;;;;;;;1999.90;999.90;;;-0.80;99.90;;;;;;5053909;28;20806;-67
2021/12/21 02:13:37;;;;;;;1999.90;999.90;;;-0.80;99.90;;;;;;5053793;28;20413;-67
2021/12/21 02:16:03;;;;;;;1999.90;999.90;;;-0.90;99.90;;;;;;5054137;28;20453;-67
2021/12/21 02:18:36;;;;;;;1999.90;999.90;;;-0.90;99.90;;;;;;5054125;28;20206;-67
2021/12/21 02:21:50;;;;;;;1999.90;999.90;;;-1.00;99.90;;;;;;5054334;28;20211;-67
2021/12/21 02:23:55;;;;;;;1999.90;999.90;;;-0.90;99.90;;;;;;5050965;28;20828;-66
2021/12/21 02:31:55;;;;;;;1999.90;999.90;;;-0.90;99.90;;;;;;5048892;28;20183;-67
2021/12/21 02:34:22;;;;;;;1999.90;999.90;;;-0.80;99.90;;;;;;5053593;28;20175;-67
2021/12/21 02:36:50;;;;;;;1999.90;999.90;;;-0.80;99.90;;;;;;5053929;28;20179;-66
2021/12/21 02:39:16;;;;;;;1999.90;999.90;;;-0.80;99.90;;;;;;5053871;28;20188;-66
2021/12/21 02:41:43;;;;;;;1999.90;999.90;;;-0.80;99.90;;;;;;5053435;28;20199;-66
2021/12/21 02:44:10;;;;;;;1999.90;999.90;;;-0.80;99.90;;;;;;5053108;28;20202;-66
2021/12/21 02:46:38;;;;;;;1999.90;999.90;;;-0.80;99.90;;;;;;5054102;28;20161;-67
2021/12/21 02:49:04;;;;;;;1999.90;999.90;;;-0.80;99.90;;;;;;5054234;28;20211;-67
2021/12/21 02:51:30;;;;;;;1999.90;999.90;;;-0.80;99.90;;;;;;5054620;28;20254;-66
2021/12/21 02:53:56;;;;;;;1999.90;999.90;;;-0.80;99.90;;;;;;5054797;28;20214;-66
2021/12/21 02:56:23;;;;;;;1999.90;999.90;;;-0.80;99.90;;;;;;5054447;28;20167;-66
2021/12/21 02:58:49;;;;;;;1999.90;999.90;;;-0.80;99.90;;;;;;5054217;28;20665;-66
2021/12/21 03:01:15;;;;;;;1999.90;999.90;;;-0.90;99.90;;;;;;5053916;28;20206;-66
2021/12/21 03:03:41;;;;;;;1999.90;999.90;;;-0.90;99.90;;;;;;5054013;28;20171;-67
2021/12/21 03:06:12;;;;;;;1999.90;999.90;;;-0.90;99.90;;;;;;5053934;28;20544;-66
2021/12/21 03:08:42;;;;;;;1999.90;999.90;;;-0.90;99.90;;;;;;5054146;28;20188;-66
2021/12/21 03:11:20;;;;;;;1999.90;999.90;;;-0.90;99.90;;;;;;5054170;28;20179;-67
2021/12/21 03:14:19;;;;;;;1999.90;999.90;;;-0.90;99.90;;;;;;5054392;28;20182;-66
2021/12/21 03:16:39;;;;;;;1999.90;999.90;;;-1.00;99.90;;;;;;5053390;28;20653;-66
2021/12/21 03:19:07;;;;;;;1999.90;999.90;;;-1.00;99.90;;;;;;5054667;28;20216;-67
2021/12/21 03:21:34;;;;;;;1999.90;999.90;;;-1.00;99.90;;;;;;5054663;28;20199;-66
2021/12/21 03:24:01;;;;;;;1999.90;999.90;;;-1.00;99.90;;;;;;5054725;28;20609;-66
2021/12/21 03:26:27;;;;;;;1999.90;999.90;;;-1.00;99.90;;;;;;5054878;28;20262;-66
2021/12/21 03:28:53;;;;;;;1999.90;999.90;;;-1.00;99.90;;;;;;5054447;28;20231;-66
2021/12/21 03:31:20;;;;;;;1999.90;999.90;;;-1.00;99.90;;;;;;5054524;28;20394;-67
2021/12/21 03:33:46;;;;;;;1999.90;999.90;;;-1.00;99.90;;;;;;5054569;28;20203;-66
2021/12/21 03:36:12;;;;;;;1999.90;999.90;;;-1.10;99.90;;;;;;5054493;28;20171;-66
2021/12/21 03:38:40;;;;;;;1999.90;999.90;;;-1.10;99.90;;;;;;5054361;28;20202;-65
2021/12/21 03:41:14;;;;;;;1999.90;999.90;;;-1.10;99.90;;;;;;5054068;28;20249;-66
2021/12/21 03:43:39;;;;;;;1999.90;999.90;;;-1.20;99.90;;;;;;5057375;28;20168;-66
2021/12/21 03:46:10;;;;;;;1999.90;999.90;;;-1.20;99.90;;;;;;5057786;28;20171;-66
2021/12/21 03:48:41;;;;;;;1999.90;999.90;;;-1.20;99.90;;;;;;5058242;28;20558;-66
2021/12/21 03:51:06;;;;;;;1999.90;999.90;;;-1.20;99.90;;;;;;5058270;28;20187;-66
2021/12/21 03:53:32;;;;;;;1999.90;999.90;;;-1.30;99.90;;;;;;5058216;28;20198;-66
2021/12/21 03:58:42;;;;;;;1999.90;999.90;;;-1.20;99.90;;;;;;5057900;28;20225;-67
2021/12/21 04:01:08;;;;;;;1999.90;999.90;;;-1.30;99.90;;;;;;5057836;28;20195;-66
2021/12/21 04:03:34;;;;;;;1999.90;999.90;;;-1.40;99.90;;;;;;5057057;28;20207;-65
2021/12/21 04:06:00;;;;;;;1999.90;999.90;;;-1.50;99.90;;;;;;5056550;28;20207;-66
2021/12/21 04:08:25;;;;;;;1999.90;999.90;;;-1.50;99.90;;;;;;5056668;28;20425;-65
2021/12/21 04:10:51;;;;;;;1999.90;999.90;;;-1.50;99.90;;;;;;5056660;28;20164;-66
2021/12/21 04:13:16;;;;;;;1999.90;999.90;;;-1.50;99.90;;;;;;5057069;28;20206;-65
2021/12/21 04:15:43;;;;;;;1999.90;999.90;;;-1.50;99.90;;;;;;5056410;28;20551;-66
2021/12/21 04:18:13;;;;;;;1999.90;999.90;;;-1.50;99.90;;;;;;5056794;28;20271;-66
2021/12/21 04:20:40;;;;;;;1999.90;999.90;;;-1.50;99.90;;;;;;5056220;28;20199;-65
2021/12/21 04:23:07;;;;;;;1999.90;999.90;;;-1.50;99.90;;;;;;5057127;28;20625;-65
2021/12/21 04:25:33;;;;;;;1999.90;999.90;;;-1.50;99.90;;;;;;5056427;28;20259;-66
2021/12/21 04:27:59;;;;;;;1999.90;999.90;;;-1.40;99.90;;;;;;5056617;28;20226;-65
2021/12/21 04:30:25;;;;;;;1999.90;999.90;;;-1.40;99.90;;;;;;5057044;28;20176;-65
2021/12/21 04:32:51;;;;;;;1999.90;999.90;;;-1.40;99.90;;;;;;5057314;28;20945;-66
2021/12/21 04:35:20;;;;;;;1999.90;999.90;;;-1.50;99.90;;;;;;5057260;28;20202;-66
2021/12/21 04:37:52;;;;;;;1999.90;999.90;;;-1.60;99.90;;;;;;5057250;28;20321;-65
2021/12/21 04:40:21;;;;;;;1999.90;999.90;;;-1.70;99.90;;;;;;5056964;28;20257;-66
2021/12/21 04:42:47;;;;;;;1999.90;999.90;;;-1.70;99.90;;;;;;5057027;28;20167;-65
2021/12/21 04:45:12;;;;;;;1999.90;999.90;;;-1.70;99.90;;;;;;5057039;28;20240;-65
2021/12/21 04:47:38;;;;;;;1999.90;999.90;;;-1.70;99.90;;;;;;5057046;28;20191;-65
2021/12/21 04:50:04;;;;;;;1999.90;999.90;;;-1.70;99.90;;;;;;5057577;28;20179;-66
2021/12/21 04:52:29;;;;;;;1999.90;999.90;;;-1.60;99.90;;;;;;5057009;28;20179;-66
2021/12/21 04:54:56;;;;;;;1999.90;999.90;;;-1.70;99.90;;;;;;5057642;28;20226;-66
2021/12/21 04:57:22;;;;;;;1999.90;999.90;;;-1.70;99.90;;;;;;5057446;28;20190;-66
2021/12/21 04:59:47;;;;;;;1999.90;999.90;;;-1.70;99.90;;;;;;5058051;28;20179;-67
2021/12/21 05:02:13;;;;;;;1999.90;999.90;;;-1.70;99.90;;;;;;5057982;28;20398;-67
2021/12/21 05:04:39;;;;;;;1999.90;999.90;;;-1.70;99.90;;;;;;5056736;28;20549;-66
2021/12/21 05:07:05;;;;;;;1999.90;999.90;;;-1.70;99.90;;;;;;5057712;28;20171;-66
2021/12/21 05:09:40;;;;;;;1999.90;999.90;;;-1.80;99.90;;;;;;5056989;28;20422;-66
2021/12/21 05:12:08;;;;;;;1999.90;999.90;;;-1.80;99.90;;;;;;5057019;28;20175;-65
2021/12/21 05:14:33;;;;;;;1999.90;999.90;;;-1.80;99.90;;;;;;5056776;28;20164;-66
2021/12/21 05:16:59;;;;;;;1999.90;999.90;;;-1.70;99.90;;;;;;5056881;28;20217;-65
2021/12/21 05:19:25;;;;;;;1999.90;999.90;;;-1.70;99.90;;;;;;5056765;28;20219;-65
2021/12/21 05:21:51;;;;;;;1999.90;999.90;;;-1.80;99.90;;;;;;5057429;28;20214;-66
2021/12/21 05:24:16;;;;;;;1999.90;999.90;;;-1.80;99.90;;;;;;5057883;28;20168;-66
2021/12/21 05:26:42;;;;;;;1999.90;999.90;;;-1.80;99.90;;;;;;5057787;28;20199;-66
2021/12/21 05:29:07;;;;;;;1999.90;999.90;;;-1.80;99.90;;;;;;5058175;28;20194;-66
2021/12/21 05:31:33;;;;;;;1999.90;999.90;;;-1.80;99.90;;;;;;5057829;28;20171;-66
2021/12/21 05:33:59;;;;;;;1999.90;999.90;;;-1.80;99.90;;;;;;5058806;28;20171;-68
2021/12/21 05:36:25;;;;;;;1999.90;999.90;;;-1.80;99.90;;;;;;5058255;28;20221;-67
2021/12/21 05:38:58;;;;;;;1999.90;999.90;;;-1.80;99.90;;;;;;5058816;28;20199;-67
2021/12/21 05:41:28;;;;;;;1999.90;999.90;;;-1.70;99.90;;;;;;5058335;28;20457;-66
2021/12/21 05:43:55;;;;;;;1999.90;999.90;;;-1.70;99.90;;;;;;5057141;28;20703;-67
2021/12/21 05:46:20;;;;;;;1999.90;999.90;;;-1.70;99.90;;;;;;5057648;28;20196;-66
2021/12/21 05:48:48;;;;;;;1999.90;999.90;;;-1.70;99.90;;;;;;5057159;28;20191;-67
2021/12/21 05:51:14;;;;;;;1999.90;999.90;;;-1.70;99.90;;;;;;5056599;28;20168;-66
2021/12/21 05:53:40;;;;;;;1999.90;999.90;;;-1.70;99.90;;;;;;5056439;28;20175;-66
2021/12/21 05:56:05;;;;;;;1999.90;999.90;;;-1.70;99.90;;;;;;5056475;28;20176;-66
2021/12/21 05:58:31;;;;;;;1999.90;999.90;;;-1.70;99.90;;;;;;5055741;28;20668;-66
2021/12/21 06:00:56;;;;;;;1999.90;999.90;;;-1.70;99.90;;;;;;5055949;28;20235;-66
2021/12/21 06:03:22;;;;;;;1999.90;999.90;;;-1.80;99.90;;;;;;5055668;28;20198;-66
2021/12/21 06:05:47;;;;;;;1999.90;999.90;;;-1.90;99.90;;;;;;5056248;28;20164;-67
2021/12/21 06:08:13;;;;;;;1999.90;999.90;;;-1.90;99.90;;;;;;5057067;28;20669;-66
2021/12/21 06:10:41;;;;;;;1999.90;999.90;;;-1.80;99.90;;;;;;5056906;28;20223;-67
2021/12/21 06:13:25;;;;;;;1999.90;999.90;;;-1.90;99.90;;;;;;5057841;28;20258;-66
2021/12/21 06:24:52;;;;;;;1999.90;999.90;;;-1.80;99.90;;;;;;5056792;28;20202;-67
2021/12/21 06:26:34;;;;;;;1999.90;999.90;;;-1.80;99.90;;;;;;5056898;28;20176;-67
2021/12/21 06:28:59;;;;;;;1999.90;999.90;;;-1.80;99.90;;;;;;5056393;28;20196;-66
2021/12/21 06:31:25;;;;;;;1999.90;999.90;;;-1.80;99.90;;;;;;5057046;28;20260;-67
2021/12/21 06:33:51;;;;;;;1999.90;999.90;;;-1.80;99.90;;;;;;5056092;28;20641;-67
2021/12/21 06:36:17;;;;;;;1999.90;999.90;;;-1.80;99.90;;;;;;5057238;28;20206;-67
2021/12/21 06:38:43;;;;;;;1999.90;999.90;;;-1.80;99.90;;;;;;5056207;28;20789;-66
2021/12/21 06:41:09;;;;;;;1999.90;999.90;;;-1.80;99.90;;;;;;5056569;28;20959;-65
2021/12/21 06:43:35;;;;;;;1999.90;999.90;;;-1.90;99.90;;;;;;5055419;28;20402;-66
2021/12/21 06:46:10;;;;;;;1999.90;999.90;;;-1.90;99.90;;;;;;5054900;28;20402;-65
2021/12/21 06:51:33;;;;;;;1999.90;999.90;;;-1.90;99.90;;;;;;5055420;28;20194;-65
2021/12/21 06:53:59;;;;;;;1999.90;999.90;;;-1.90;99.90;;;;;;5055664;28;20680;-67
2021/12/21 06:56:27;;;;;;;1999.90;999.90;;;-1.90;99.90;;;;;;5055276;28;20203;-65
2021/12/21 06:58:55;;;;;;;1999.90;999.90;;;-1.90;99.90;;;;;;5055760;28;20242;-66
2021/12/21 07:01:21;;;;;;;1999.90;999.90;;;-1.90;99.90;;;;;;5055421;28;20357;-65
2021/12/21 07:03:47;;;;;;;1999.90;999.90;;;-1.90;99.90;;;;;;5055150;28;20591;-66
2021/12/21 07:06:15;;;;;;;1999.90;999.90;;;-1.90;99.90;;;;;;5055247;28;20175;-67
2021/12/21 07:08:53;;;;;;;1999.90;999.90;;;-1.90;99.90;;;;;;5056054;28;20434;-66
2021/12/21 07:11:26;;;;;;;1999.90;999.90;;;-1.90;99.90;;;;;;5055694;28;20168;-67
2021/12/21 07:19:21;;;;;;;1999.90;999.90;;;-2.20;99.90;;;;;;5056065;28;20253;-67
2021/12/21 07:21:46;;;;;;;1999.90;999.90;;;-2.20;99.90;;;;;;5056659;28;20608;-67
2021/12/21 07:24:12;;;;;;;1999.90;999.90;;;-2.20;99.90;;;;;;5056278;28;20167;-66
2021/12/21 07:26:38;;;;;;;1999.90;999.90;;;-2.10;99.90;;;;;;5056228;28;20167;-66
2021/12/21 07:29:04;;;;;;;1999.90;999.90;;;-2.10;99.90;;;;;;5056244;28;20195;-67
2021/12/21 07:31:30;;;;;;;1999.90;999.90;;;-2.10;99.90;;;;;;5056303;28;20172;-67
2021/12/21 07:33:58;;;;;;;1999.90;999.90;;;-2.10;99.90;;;;;;5056298;28;20182;-66
2021/12/21 07:36:24;;;;;;;1999.90;999.90;;;-2.10;99.90;;;;;;5055894;28;20176;-67
2021/12/21 07:38:49;;;;;;;1999.90;999.90;;;-2.00;99.90;;;;;;5056339;28;20198;-67
2021/12/21 07:41:15;;;;;;;1999.90;999.90;;;-2.10;99.90;;;;;;5055986;28;20203;-67
2021/12/21 07:43:41;;;;;;;1999.90;999.90;;;-2.00;99.90;;;;;;5056403;28;20168;-66
2021/12/21 07:46:06;;;;;;;1999.90;999.90;;;-1.90;99.90;;;;;;5056698;28;20750;-67
2021/12/21 07:48:32;;;;;;;1999.90;999.90;;;-1.90;99.90;;;;;;5056908;28;20578;-66
2021/12/21 07:50:58;;;;;;;1999.90;999.90;;;-1.90;99.90;;;;;;5056269;28;20207;-66
2021/12/21 07:53:24;;;;;;;1999.90;999.90;;;-1.90;99.90;;;;;;5056396;28;20254;-66
2021/12/21 07:55:49;;;;;;;1999.90;999.90;;;-1.90;99.90;;;;;;5056707;28;20817;-67
2021/12/21 07:58:15;;;;;;;1999.90;999.90;;;-1.80;99.90;;;;;;5055786;28;20453;-66
2021/12/21 08:00:41;;;;;;;1999.90;999.90;;;-1.90;99.90;;;;;;5056426;28;20202;-66
2021/12/21 08:03:07;;;;;;;1999.90;999.90;;;-1.90;99.90;;;;;;5056892;28;20467;-66
2021/12/21 08:05:34;;;;;;;1999.90;999.90;;;-2.00;99.90;;;;;;5056460;28;20175;-66
2021/12/21 08:08:40;;;;;;;1999.90;999.90;;;-2.00;99.90;;;;;;5056315;28;20450;-66
2021/12/21 08:13:33;;;;;;;1999.90;999.90;;;-1.90;99.90;;;;;;5056665;28;20172;-66
2021/12/21 08:15:58;;;;;;;1999.90;999.90;;;-2.00;99.90;;;;;;5055659;28;20179;-66
2021/12/21 08:18:24;;;;;;;1999.90;999.90;;;-1.90;99.90;;;;;;5056151;28;20195;-67
2021/12/21 08:20:49;;;;;;;1999.90;999.90;;;-1.70;99.90;;;;;;5056531;28;20199;-66
2021/12/21 08:23:15;;;;;;;1999.90;999.90;;;-1.70;99.90;;;;;;5056554;28;20603;-67
2021/12/21 08:25:40;;;;;;;1999.90;999.90;;;-1.60;99.90;;;;;;5056339;28;20168;-66
2021/12/21 08:28:07;;;;;;;1999.90;999.90;;;-1.50;99.90;;;;;;5055960;28;20192;-66
2021/12/21 08:30:34;;;;;;;1999.90;999.90;;;-1.40;99.90;;;;;;5059340;28;20176;-66
2021/12/21 08:32:59;;;;;;;1999.90;999.90;;;-1.30;99.90;;;;;;5059290;28;20182;-66
2021/12/21 08:35:26;;;;;;;1999.90;999.90;;;-1.30;99.90;;;;;;5059924;28;20701;-67
2021/12/21 08:37:53;;;;;;;1999.90;999.90;;;-1.30;99.90;;;;;;5059653;28;20191;-67
2021/12/21 08:40:20;;;;;;;1999.90;999.90;;;-1.20;99.90;;;;;;5059632;28;20214;-67
2021/12/21 08:42:48;;;;;;;1999.90;999.90;;;-1.10;99.90;;;;;;5058359;28;20167;-67
2021/12/21 08:45:14;;;;;;;1999.90;999.90;;;-1.00;99.90;;;;;;5054526;28;20254;-67
2021/12/21 08:47:40;;;;;;;1999.90;999.90;;;-1.10;99.90;;;;;;5054820;28;20740;-67
2021/12/21 08:50:08;;;;;;;1999.90;999.90;;;-1.00;99.90;;;;;;5054698;28;20175;-67
2021/12/21 08:52:35;;;;;;;1999.90;999.90;;;-0.90;99.90;;;;;;5054655;28;20846;-67
2021/12/21 08:55:02;;;;;;;1999.90;999.90;;;-0.90;99.90;;;;;;5054271;28;20251;-66
2021/12/21 08:57:28;;;;;;;1999.90;999.90;;;-0.70;99.90;;;;;;5054545;28;20192;-66
2021/12/21 08:59:53;;;;;;;1999.90;999.90;;;-0.70;99.90;;;;;;5054650;28;20172;-67
2021/12/21 09:02:19;;;;;;;1999.90;999.90;;;-0.70;99.90;;;;;;5054700;28;20598;-67
2021/12/21 09:04:45;;;;;;;1999.90;999.90;;;-0.60;99.90;;;;;;5054638;28;20676;-66
2021/12/21 09:07:10;;;;;;;1999.90;999.90;;;-0.60;99.90;;;;;;5054535;28;20164;-67
2021/12/21 09:09:36;;;;;;;1999.90;999.90;;;-0.60;99.90;;;;;;5054594;28;20156;-67
2021/12/21 09:12:02;;;;;;;1999.90;999.90;;;-0.50;99.90;;;;;;5054611;28;20171;-67
2021/12/21 09:14:31;;;;;;;1999.90;999.90;;;-0.40;99.90;;;;;;5054299;28;20433;-67
2021/12/21 09:16:58;;;;;;;1999.90;999.90;;;-0.40;99.90;;;;;;5054549;28;20179;-67
2021/12/21 09:19:24;;;;;;;1999.90;999.90;;;-0.40;99.90;;;;;;5054337;28;20243;-67
2021/12/21 09:21:49;;;;;;;1999.90;999.90;;;-0.30;99.90;;;;;;5054125;28;20283;-67
2021/12/21 09:24:15;;;;;;;1999.90;999.90;;;-0.20;99.90;;;;;;5053815;28;20543;-67
2021/12/21 09:26:41;;;;;;;1999.90;999.90;;;-0.10;99.90;;;;;;5054194;28;20986;-67
2021/12/21 09:29:07;;;;;;;1999.90;999.90;;;0.00;99.90;;;;;;5054048;28;20422;-67
2021/12/21 09:31:32;;;;;;;1999.90;999.90;;;0.10;99.90;;;;;;5054193;28;20179;-67
2021/12/21 09:33:58;;;;;;;1999.90;999.90;;;0.10;99.90;;;;;;5053975;28;20172;-66
2021/12/21 09:36:26;;;;;;;1999.90;999.90;;;0.10;99.90;;;;;;5053703;28;20175;-67
2021/12/21 09:38:51;;;;;;;1999.90;999.90;;;0.20;99.90;;;;;;5047647;28;20191;-66
2021/12/21 09:41:18;;;;;;;1999.90;999.90;;;0.30;99.90;;;;;;5051221;28;20681;-67
2021/12/21 09:43:44;;;;;;;1999.90;999.90;;;0.20;99.90;;;;;;5051844;28;20202;-67
2021/12/21 09:46:17;;;;;;;1999.90;999.90;;;0.30;99.90;;;;;;5051549;28;20180;-67
2021/12/21 09:48:44;;;;;;;1999.90;999.90;;;0.20;99.90;;;;;;5050699;28;20211;-67
2021/12/21 09:51:10;;;;;;;1999.90;999.90;;;0.40;99.90;;;;;;5051970;28;20183;-67
2021/12/21 09:53:36;;;;;;;1999.90;999.90;;;0.40;99.90;;;;;;5045907;28;20189;-66
2021/12/21 09:56:04;;;;;;;1999.90;999.90;;;0.50;99.90;;;;;;5052358;28;20175;-66
2021/12/21 09:58:31;;;;;;;1999.90;999.90;;;0.50;99.90;;;;;;5052282;28;20692;-66
2021/12/21 10:00:56;;;;;;;1999.90;999.90;;;0.60;99.90;;;;;;5051769;28;20229;-66
2021/12/21 10:03:22;;;;;;;1999.90;999.90;;;0.70;99.90;;;;;;5052415;28;20175;-66
2021/12/21 10:05:49;;;;;;;1999.90;999.90;;;0.70;99.90;;;;;;5051836;28;20220;-66
2021/12/21 10:08:19;;;;;;;1999.90;999.90;;;0.80;99.90;;;;;;5053006;28;20567;-68
2021/12/21 10:10:52;;;;;;;1999.90;999.90;;;1.00;99.90;;;;;;5053895;28;20215;-67
2021/12/21 10:13:23;;;;;;;1999.90;999.90;;;1.00;99.90;;;;;;5053418;28;20152;-68
2021/12/21 10:15:53;;;;;;;1999.90;999.90;;;0.80;99.90;;;;;;5052494;28;20270;-68
2021/12/21 10:18:32;;;;;;;1999.90;999.90;;;0.90;99.90;;;;;;5052240;28;20191;-68
2021/12/21 10:21:00;;;;;;;1999.90;999.90;;;1.00;99.90;;;;;;5051758;28;20213;-68
2021/12/21 10:23:32;;;;;;;1999.90;999.90;;;1.10;99.90;;;;;;5054313;28;20651;-68
2021/12/21 10:26:01;;;;;;;1999.90;999.90;;;1.20;99.90;;;;;;5053812;28;20250;-68
2021/12/21 10:28:33;;;;;;;1999.90;999.90;;;1.20;99.90;;;;;;5053012;28;20580;-68
2021/12/21 10:31:01;;;;;;;1999.90;999.90;;;1.40;99.90;;;;;;5051797;28;20233;-67
2021/12/21 10:33:28;;;;;;;1999.90;999.90;;;1.50;99.90;;;;;;5052116;28;20621;-67
2021/12/21 10:35:56;;;;;;;1999.90;999.90;;;1.60;99.90;;;;;;5051617;28;20221;-68
2021/12/21 10:38:36;;;;;;;1999.90;999.90;;;1.60;99.90;;;;;;5052232;28;20578;-67
2021/12/21 10:41:06;;;;;;;1999.90;999.90;;;1.60;99.90;;;;;;5051139;28;20195;-68
2021/12/21 10:43:32;;;;;;;1999.90;999.90;;;1.70;99.90;;;;;;5051011;28;20168;-68
2021/12/21 10:45:57;;;;;;;1999.90;999.90;;;1.80;99.90;;;;;;5052002;28;20305;-67
2021/12/21 10:48:23;;;;;;;1999.90;999.90;;;1.80;99.90;;;;;;5052329;28;20191;-67
2021/12/21 10:50:49;;;;;;;1999.90;999.90;;;1.90;99.90;;;;;;5053256;28;20171;-67
2021/12/21 10:53:24;;;;;;;1999.90;999.90;;;2.00;99.90;;;;;;5051482;28;20163;-68
2021/12/21 10:56:08;;;;;;;1999.90;999.90;;;2.00;99.90;;;;;;5051240;28;20571;-68
2021/12/21 10:58:39;;;;;;;1999.90;999.90;;;2.10;99.90;;;;;;5050489;28;20689;-68
2021/12/21 11:01:08;;;;;;;1999.90;999.90;;;2.20;99.90;;;;;;5050744;28;20191;-68
2021/12/21 11:03:48;;;;;;;1999.90;999.90;;;2.30;99.90;;;;;;5051012;28;20259;-67
2021/12/21 11:06:24;;;;;;;1999.90;999.90;;;2.30;99.90;;;;;;5052623;28;20156;-68
2021/12/21 11:08:55;;;;;;;1999.90;999.90;;;2.40;99.90;;;;;;5050809;28;20178;-67
2021/12/21 11:11:32;;;;;;;1999.90;999.90;;;2.40;99.90;;;;;;5051297;28;20630;-66
2021/12/21 11:14:04;;;;;;;1999.90;999.90;;;2.60;99.90;;;;;;5051512;28;20163;-67
2021/12/21 11:16:45;;;;;;;1999.90;999.90;;;2.80;99.90;;;;;;5051348;28;20673;-68
2021/12/21 11:19:13;;;;;;;1999.90;999.90;;;3.40;99.90;;;;;;5051961;28;20226;-66
2021/12/21 11:21:40;;;;;;;1999.90;999.90;;;4.10;99.90;;;;;;5051518;28;20202;-66
2021/12/21 11:24:09;;;;;;;1999.90;999.90;;;4.70;99.90;;;;;;5052130;28;20186;-66
2021/12/21 11:26:36;;;;;;;1999.90;999.90;;;5.20;99.90;;;;;;5052251;28;20288;-66
2021/12/21 11:29:05;;;;;;;1999.90;999.90;;;5.80;99.90;;;;;;5051650;28;20437;-66
2021/12/21 11:31:35;;;;;;;1999.90;999.90;;;6.40;99.90;;;;;;5051001;28;20465;-68
2021/12/21 11:34:01;;;;;;;1999.90;999.90;;;6.80;99.90;;;;;;5050964;28;20390;-68
2021/12/21 11:39:16;;;;;;;1999.90;999.90;;;7.80;99.90;;;;;;5022152;28;20439;-68
2021/12/21 11:41:43;;;;;;;1999.90;999.90;;;8.10;99.90;;;;;;5050546;28;21299;-67
2021/12/21 11:44:36;;;;;;;1999.90;999.90;;;8.70;99.90;;;;;;5053096;28;20181;-67
2021/12/21 11:47:02;;;;;;;1999.90;999.90;;;9.60;99.90;;;;;;5053834;28;20412;-66
2021/12/21 11:49:50;;;;;;;1999.90;999.90;;;10.30;99.90;;;;;;5053591;28;20428;-66
2021/12/21 11:52:20;;;;;;;1999.90;999.90;;;10.60;99.90;;;;;;5053051;28;20427;-67
2021/12/21 11:55:04;;;;;;;1999.90;999.90;;;11.00;99.90;;;;;;5051881;28;20406;-67
2021/12/21 11:57:57;;;;;;;1999.90;999.90;;;11.50;99.90;;;;;;5050819;28;20429;-67
2021/12/21 12:00:30;;;;;;;1999.90;999.90;;;11.50;99.90;;;;;;5048628;28;20467;-67
2021/12/21 12:03:09;;;;;;;1999.90;999.90;;;11.50;99.90;;;;;;5050811;28;20401;-67
2021/12/21 12:05:35;;;;;;;1999.90;999.90;;;11.50;99.90;;;;;;5054208;28;20497;-67
2021/12/21 12:08:10;;;;;;;1999.90;999.90;;;11.40;99.90;;;;;;5055078;28;20440;-67
2021/12/21 12:10:49;;;;;;;1999.90;999.90;;;11.30;99.90;;;;;;5055641;28;20451;-67
2021/12/21 12:13:24;;;;;;;1999.90;999.90;;;11.40;99.90;;;;;;5055799;28;20409;-66
2021/12/21 12:16:04;;;;;;;1999.90;999.90;;;11.70;99.90;;;;;;5056344;28;20929;-67
2021/12/21 12:18:45;;;;;;;1999.90;999.90;;;12.40;99.90;;;;;;5055859;28;20417;-67
2021/12/21 12:21:31;;;;;;;1999.90;999.90;;;13.10;99.90;;;;;;5055055;28;20455;-67
2021/12/21 12:24:04;;;;;;;1999.90;999.90;;;13.60;96.60;;;;;;5055370;28;20924;-67
2021/12/21 12:26:33;;;;;;;1999.90;999.90;;;13.90;93.90;;;;;;5055025;28;20445;-67
2021/12/21 12:29:17;;;;;;;1999.90;999.90;;;14.40;94.10;;;;;;5054370;28;20451;-68
2021/12/21 12:31:56;;;;;;;1999.90;999.90;;;15.00;90.90;;;;;;5054918;28;20472;-67
2021/12/21 12:34:24;;;;;;;1999.90;999.90;;;15.50;88.10;;;;;;5054428;28;20781;-67
2021/12/21 12:36:51;;;;;;;1999.90;999.90;;;16.00;75.00;;;;;;5055036;28;20768;-67
2021/12/21 12:39:39;;;;;;;1999.90;999.90;;;16.10;64.00;;;;;;5054635;28;20436;-67
2021/12/21 12:42:08;;;;;;;1999.90;999.90;;;15.90;64.50;;;;;;5054415;28;20557;-67
2021/12/21 12:44:35;;;;;;;1999.90;999.90;;;15.90;62.10;;;;;;5054140;28;20402;-67
2021/12/21 12:47:04;;;;;;;1999.90;999.90;;;16.00;60.60;;;;;;5054482;28;20401;-67
2021/12/21 12:49:33;;;;;;;1999.90;999.90;;;15.90;59.10;;;;;;5053570;28;20418;-67
2021/12/21 12:52:18;;;;;;;1999.90;999.90;;;15.80;57.00;;;;;;5054521;28;20438;-67
2021/12/21 12:54:51;;;;;;;1999.90;999.90;;;16.10;58.20;;;;;;5053844;28;20883;-67
2021/12/21 12:57:53;;;;;;;1999.90;999.90;;;16.40;57.40;;;;;;5053438;28;20441;-67
2021/12/21 13:00:21;;;;;;;1999.90;999.90;;;16.80;55.30;;;;;;5053341;28;20543;-67
2021/12/21 13:03:02;;;;;;;1999.90;999.90;;;16.70;53.10;;;;;;5053831;28;20403;-67